Time;durP1;ratioP1;P1;durP2;ratioP2;P2;SDS_P1;SDS_P2;PMS_P1;PMS_P2;Temp;Humidity;BMP_temperature;BMP_pressure;BME280_temperature;BME280_humidity;BME280_pressure;Samples;Min_cycle;Max_cycle;Signal;HPM_P1;HPM_P2
2021/10/19 00:02:13;;;;;;;2.78;1.00;;;;;;;4.91;63.94;99328.19;5059871;28;20072;-56
2021/10/19 00:04:39;;;;;;;2.47;1.08;;;;;;;4.76;63.88;99298.19;5065922;28;20551;-56
2021/10/19 00:07:04;;;;;;;1.10;0.70;;;;;;;4.97;64.27;99333.09;5051910;28;20036;-57
2021/10/19 00:09:29;;;;;;;3.03;0.75;;;;;;;4.80;64.09;99303.22;5046218;28;20117;-57
2021/10/19 00:11:55;;;;;;;3.08;0.90;;;;;;;4.89;64.26;99313.22;5061042;28;20037;-55
2021/10/19 00:14:21;;;;;;;2.53;0.70;;;;;;;4.83;64.30;99304.84;5065835;28;20044;-54
2021/10/19 00:16:46;;;;;;;1.33;0.60;;;;;;;4.94;64.23;99333.28;5053242;28;20040;-54
2021/10/19 00:19:11;;;;;;;0.73;0.50;;;;;;;4.97;63.94;99328.63;5042631;28;20439;-55
2021/10/19 00:21:37;;;;;;;1.33;0.73;;;;;;;4.97;63.96;99327.81;5063247;28;20040;-57
2021/10/19 00:24:03;;;;;;;5.35;0.77;;;;;;;4.94;64.14;99326.19;5045923;28;20389;-56
2021/10/19 00:26:28;;;;;;;1.10;0.60;;;;;;;5.00;64.12;99338.22;5048678;28;20049;-53
2021/10/19 00:28:54;;;;;;;1.15;0.60;;;;;;;4.97;64.47;99336.59;5048644;28;20037;-56
2021/10/19 00:31:19;;;;;;;1.08;0.60;;;;;;;4.97;64.59;99331.28;5065435;28;20029;-54
2021/10/19 00:33:45;;;;;;;1.98;0.80;;;;;;;4.79;63.72;99298.00;5056522;28;20045;-58
2021/10/19 00:36:10;;;;;;;1.20;0.60;;;;;;;4.96;64.29;99331.41;5063233;28;20051;-55
2021/10/19 00:38:36;;;;;;;1.15;0.60;;;;;;;4.95;64.22;99327.06;5049138;28;20062;-56
2021/10/19 00:41:02;;;;;;;1.13;0.68;;;;;;;4.94;64.67;99334.16;5068133;28;20029;-57
2021/10/19 00:43:27;;;;;;;3.22;0.60;;;;;;;4.95;64.42;99327.06;5058929;28;20091;-54
2021/10/19 00:45:56;;;;;;;3.63;0.70;;;;;;;4.98;64.55;99338.31;5060699;28;20025;-56
2021/10/19 00:48:25;;;;;;;2.55;0.60;;;;;;;4.96;64.51;99342.03;5057118;28;20025;-57
2021/10/19 00:50:51;;;;;;;0.90;0.70;;;;;;;4.97;64.33;99338.41;5068011;28;20085;-58
2021/10/19 00:53:18;;;;;;;1.27;0.63;;;;;;;5.00;64.71;99348.81;5055672;28;20025;-58
2021/10/19 00:55:44;;;;;;;2.97;0.80;;;;;;;4.98;64.75;99346.25;5059663;28;20046;-56
2021/10/19 00:58:09;;;;;;;1.45;0.60;;;;;;;4.93;64.66;99331.59;5064526;28;20043;-57
2021/10/19 01:00:35;;;;;;;2.20;0.70;;;;;;;4.97;65.35;99357.00;5054829;28;20037;-57
2021/10/19 01:03:01;;;;;;;1.90;0.60;;;;;;;5.01;64.84;99346.06;5068668;28;20076;-53
2021/10/19 01:05:27;;;;;;;1.33;0.80;;;;;;;5.03;64.86;99357.41;5050074;28;20071;-51
2021/10/19 01:07:53;;;;;;;1.80;0.60;;;;;;;4.98;64.88;99337.47;5052296;28;20032;-56
2021/10/19 01:10:18;;;;;;;1.02;0.60;;;;;;;5.07;64.44;99359.91;5049015;28;20025;-56
2021/10/19 01:12:44;;;;;;;4.20;0.65;;;;;;;5.09;65.06;99344.72;5065371;28;20056;-57
2021/10/19 01:15:12;;;;;;;3.10;0.82;;;;;;;5.11;64.86;99362.22;5055083;28;20033;-58
2021/10/19 01:17:48;;;;;;;2.97;0.85;;;;;;;5.19;64.69;99363.53;5058709;28;20062;-53
2021/10/19 01:20:19;;;;;;;1.20;0.70;;;;;;;5.19;64.82;99363.53;5054139;28;20029;-55
2021/10/19 01:22:45;;;;;;;0.77;0.70;;;;;;;5.14;64.72;99361.19;5065488;28;20545;-56
2021/10/19 01:25:15;;;;;;;3.75;0.70;;;;;;;4.86;64.95;99312.59;5056215;28;20032;-58
2021/10/19 01:27:46;;;;;;;3.05;0.68;;;;;;;5.17;65.15;99361.81;5063004;28;20055;-55
2021/10/19 01:30:11;;;;;;;1.42;0.80;;;;;;;5.19;64.46;99359.06;5062495;28;20055;-55
2021/10/19 01:32:37;;;;;;;1.00;0.73;;;;;;;5.20;64.98;99371.38;5064361;28;20484;-56
2021/10/19 01:35:02;;;;;;;1.52;0.73;;;;;;;5.20;64.88;99371.38;5054837;28;20027;-57
2021/10/19 01:37:28;;;;;;;1.02;0.60;;;;;;;5.16;65.10;99364.59;5066719;28;20031;-58
2021/10/19 01:39:53;;;;;;;0.90;0.70;;;;;;;5.21;65.15;99378.41;5060032;28;20025;-57
2021/10/19 01:42:19;;;;;;;0.90;0.63;;;;;;;5.20;64.69;99376.69;5037730;28;20038;-55
2021/10/19 01:44:44;;;;;;;2.15;0.75;;;;;;;5.23;64.83;99373.00;5064001;28;20427;-55
2021/10/19 01:47:09;;;;;;;4.63;0.88;;;;;;;5.15;64.45;99371.69;5050675;28;20028;-53
2021/10/19 01:49:35;;;;;;;1.15;0.80;;;;;;;5.20;64.69;99379.34;5046512;28;20465;-53
2021/10/19 01:52:00;;;;;;;1.98;1.00;;;;;;;5.16;64.90;99388.47;5052762;28;20055;-55
2021/10/19 01:54:26;;;;;;;1.90;1.00;;;;;;;5.16;64.87;99376.03;5060937;28;20039;-56
2021/10/19 01:56:51;;;;;;;1.55;0.80;;;;;;;5.13;65.33;99380.72;5053579;28;20389;-57
2021/10/19 01:59:17;;;;;;;1.05;0.70;;;;;;;5.14;65.25;99388.56;5057486;28;20484;-52
2021/10/19 02:01:42;;;;;;;1.73;0.82;;;;;;;5.16;65.50;99385.81;5059642;28;20509;-56
2021/10/19 02:04:07;;;;;;;1.88;0.90;;;;;;;5.14;65.62;99382.41;5057000;28;20111;-55
2021/10/19 02:06:33;;;;;;;2.35;0.65;;;;;;;5.21;65.75;99386.38;5053955;28;20110;-53
2021/10/19 02:08:58;;;;;;;1.55;0.90;;;;;;;5.22;65.81;99396.03;5052091;28;20051;-52
2021/10/19 02:11:24;;;;;;;1.55;0.88;;;;;;;5.22;66.09;99392.53;5050239;28;20039;-56
2021/10/19 02:13:49;;;;;;;1.45;0.88;;;;;;;5.15;66.03;99381.47;5056987;28;20047;-57
2021/10/19 02:16:14;;;;;;;1.77;1.00;;;;;;;5.22;66.57;99398.69;5056758;28;20096;-55
2021/10/19 02:18:40;;;;;;;2.13;0.80;;;;;;;5.19;66.38;99377.66;5062713;28;20056;-57
2021/10/19 02:21:07;;;;;;;0.82;0.68;;;;;;;5.22;65.23;99387.22;5065683;28;20056;-52
2021/10/19 02:23:32;;;;;;;0.70;0.70;;;;;;;5.19;65.63;99393.56;5043727;28;20037;-54
2021/10/19 02:25:57;;;;;;;1.70;0.93;;;;;;;5.22;65.18;99396.03;5051761;28;20071;-58
2021/10/19 02:28:23;;;;;;;1.95;0.70;;;;;;;5.18;65.76;99399.84;5054881;28;20347;-56
2021/10/19 02:30:49;;;;;;;2.55;0.70;;;;;;;5.14;65.15;99393.03;5047214;28;20030;-60
2021/10/19 02:33:15;;;;;;;2.75;0.65;;;;;;;5.09;65.28;99401.28;5040234;28;20055;-56
2021/10/19 02:35:40;;;;;;;1.98;0.60;;;;;;;5.10;64.42;99402.16;5061229;28;20381;-58
2021/10/19 02:38:06;;;;;;;0.93;0.60;;;;;;;4.99;64.37;99395.72;5062105;28;20024;-55
2021/10/19 02:40:31;;;;;;;1.33;0.60;;;;;;;5.11;64.48;99415.31;5044918;28;20036;-57
2021/10/19 02:42:57;;;;;;;0.85;0.60;;;;;;;5.03;64.09;99413.13;5052465;28;20070;-55
2021/10/19 02:45:23;;;;;;;1.20;0.70;;;;;;;5.03;63.80;99409.66;5063479;28;20368;-56
2021/10/19 02:47:48;;;;;;;1.42;0.70;;;;;;;4.97;64.18;99404.75;5058907;28;20028;-56
2021/10/19 02:50:14;;;;;;;0.73;0.50;;;;;;;4.98;64.13;99409.94;5054018;28;20472;-55
2021/10/19 02:52:40;;;;;;;0.90;0.57;;;;;;;5.03;63.61;99410.47;5038312;28;20552;-57
2021/10/19 02:55:08;;;;;;;0.80;0.60;;;;;;;5.13;63.40;99416.06;5065787;28;20036;-53
2021/10/19 02:57:34;;;;;;;1.92;0.63;;;;;;;5.07;63.93;99413.81;5057964;28;20150;-54
2021/10/19 02:59:59;;;;;;;1.45;0.90;;;;;;;5.05;63.62;99415.72;5057768;28;20116;-57
2021/10/19 03:02:25;;;;;;;2.25;0.52;;;;;;;5.10;63.20;99423.38;5048047;28;20401;-56
2021/10/19 03:04:51;;;;;;;0.63;0.60;;;;;;;5.12;63.57;99437.41;5065030;28;20029;-56
2021/10/19 03:07:16;;;;;;;1.77;0.60;;;;;;;5.11;62.82;99435.69;5054901;28;20472;-54
2021/10/19 03:09:42;;;;;;;0.73;0.50;;;;;;;5.12;62.84;99432.09;5060344;28;20036;-56
2021/10/19 03:12:07;;;;;;;1.10;0.60;;;;;;;4.91;62.25;99395.38;5041342;28;20048;-57
2021/10/19 03:14:33;;;;;;;0.73;0.55;;;;;;;5.01;62.04;99417.69;5060372;28;20040;-56
2021/10/19 03:16:58;;;;;;;0.85;0.60;;;;;;;5.10;61.43;99434.81;5034545;28;20495;-57
2021/10/19 03:19:23;;;;;;;1.23;0.70;;;;;;;5.09;61.34;99448.22;5062238;28;20024;-58
2021/10/19 03:21:49;;;;;;;0.60;0.55;;;;;;;5.01;60.80;99441.56;5052188;28;20051;-56
2021/10/19 03:24:14;;;;;;;0.50;0.50;;;;;;;4.97;60.18;99442.72;5031829;28;20087;-53
2021/10/19 03:26:40;;;;;;;1.08;0.60;;;;;;;4.97;59.93;99448.03;5063073;28;20478;-56
2021/10/19 03:29:05;;;;;;;0.57;0.50;;;;;;;4.78;60.16;99407.69;5053813;28;20453;-55
2021/10/19 03:31:35;;;;;;;1.10;0.50;;;;;;;4.99;59.51;99438.16;5062310;28;20029;-56
2021/10/19 03:34:02;;;;;;;0.40;0.40;;;;;;;5.03;58.95;99439.66;5038634;28;20042;-53
2021/10/19 03:36:27;;;;;;;0.85;0.50;;;;;;;5.02;59.10;99447.75;5029406;28;20037;-55
2021/10/19 03:38:53;;;;;;;0.40;0.40;;;;;;;5.01;58.81;99452.19;5067242;28;20040;-56
2021/10/19 03:41:18;;;;;;;0.52;0.40;;;;;;;5.01;58.48;99451.34;5058528;28;20103;-52
2021/10/19 03:43:44;;;;;;;1.23;0.40;;;;;;;5.01;59.05;99452.19;5053137;28;20148;-57
2021/10/19 03:46:09;;;;;;;0.82;0.40;;;;;;;4.96;59.03;99454.28;5066153;28;20020;-54
2021/10/19 03:48:35;;;;;;;2.72;0.57;;;;;;;4.94;59.44;99442.06;5057356;28;20031;-56
2021/10/19 03:51:00;;;;;;;1.85;0.40;;;;;;;4.92;59.96;99452.78;5069666;28;20492;-55
2021/10/19 03:53:26;;;;;;;0.40;0.40;;;;;;;4.96;59.63;99454.28;5050987;28;20493;-53
2021/10/19 03:55:51;;;;;;;0.90;0.57;;;;;;;5.05;59.71;99449.34;5037839;28;20029;-54
2021/10/19 03:58:17;;;;;;;0.82;0.70;;;;;;;5.01;59.72;99446.88;5060593;28;20485;-54
2021/10/19 04:00:42;;;;;;;0.70;0.60;;;;;;;5.12;59.64;99464.78;5056295;28;20024;-57
2021/10/19 04:03:09;;;;;;;2.25;0.63;;;;;;;5.16;59.65;99460.13;5068297;28;20021;-55
2021/10/19 04:05:34;;;;;;;0.50;0.50;;;;;;;5.14;59.36;99467.34;5051382;28;20028;-57
2021/10/19 04:08:00;;;;;;;1.50;0.88;;;;;;;5.10;59.52;99457.88;5067046;28;20036;-55
2021/10/19 04:10:26;;;;;;;1.67;1.05;;;;;;;5.16;59.29;99468.09;5062551;28;20040;-55
2021/10/19 04:12:51;;;;;;;0.80;0.80;;;;;;;5.13;59.90;99465.63;5055759;28;20056;-55
2021/10/19 04:15:17;;;;;;;0.70;0.70;;;;;;;5.14;60.09;99462.88;5056952;28;20037;-56
2021/10/19 04:17:42;;;;;;;0.98;0.80;;;;;;;5.08;60.41;99473.03;5060400;28;20038;-56
2021/10/19 04:20:08;;;;;;;1.10;0.68;;;;;;;5.01;60.26;99470.75;5060216;28;20086;-54
2021/10/19 04:22:34;;;;;;;1.23;0.70;;;;;;;4.99;60.37;99470.00;5068147;28;20036;-56
2021/10/19 04:25:00;;;;;;;0.70;0.60;;;;;;;5.00;60.12;99466.41;5050612;28;20890;-54
2021/10/19 04:27:26;;;;;;;1.20;0.70;;;;;;;5.02;60.10;99477.75;5049681;28;20067;-54
2021/10/19 04:29:52;;;;;;;0.88;0.70;;;;;;;4.97;60.27;99463.13;5061639;28;20036;-55
2021/10/19 04:32:17;;;;;;;1.38;1.00;;;;;;;5.07;60.63;99484.59;5065495;28;20028;-51
2021/10/19 04:34:43;;;;;;;0.98;0.85;;;;;;;5.12;59.86;99482.50;5055345;28;20140;-56
2021/10/19 04:37:08;;;;;;;0.70;0.70;;;;;;;5.03;60.37;99476.81;5044611;28;20469;-57
2021/10/19 04:39:35;;;;;;;0.80;0.80;;;;;;;5.03;60.65;99492.75;5047926;28;20039;-53
2021/10/19 04:42:01;;;;;;;4.63;0.88;;;;;;;5.10;60.45;99485.25;5059982;28;20261;-54
2021/10/19 04:44:26;;;;;;;1.25;0.88;;;;;;;4.92;60.74;99471.34;5066698;28;20549;-58
2021/10/19 04:46:52;;;;;;;0.80;0.70;;;;;;;5.02;61.05;99487.53;5046609;28;20029;-57
2021/10/19 04:49:17;;;;;;;1.35;0.80;;;;;;;5.03;61.17;99498.03;5056084;28;20039;-54
2021/10/19 04:51:43;;;;;;;1.08;0.90;;;;;;;4.88;60.71;99461.88;5062285;28;20024;-58
2021/10/19 04:54:09;;;;;;;0.95;0.77;;;;;;;5.13;60.89;99502.78;5064717;28;20123;-53
2021/10/19 04:56:34;;;;;;;1.48;0.70;;;;;;;5.15;60.31;99496.41;5050779;28;20074;-57
2021/10/19 04:59:00;;;;;;;2.17;0.98;;;;;;;5.14;60.03;99494.72;5045139;28;20090;-53
2021/10/19 05:01:25;;;;;;;4.68;0.75;;;;;;;5.27;60.39;99497.44;5065510;28;20525;-53
2021/10/19 05:03:52;;;;;;;1.30;0.77;;;;;;;5.33;59.37;99509.47;5059675;28;20468;-55
2021/10/19 05:06:18;;;;;;;0.95;0.80;;;;;;;5.31;60.01;99501.63;5055618;28;20035;-53
2021/10/19 05:08:43;;;;;;;0.70;0.70;;;;;;;5.37;59.74;99507.47;5038451;28;20429;-56
2021/10/19 05:11:09;;;;;;;1.08;0.80;;;;;;;5.44;59.30;99508.78;5067180;28;20078;-58
2021/10/19 05:13:34;;;;;;;2.00;0.80;;;;;;;5.41;59.12;99515.13;5058647;28;20102;-55
2021/10/19 05:16:00;;;;;;;1.05;0.80;;;;;;;5.32;59.02;99503.31;5059557;28;20037;-53
2021/10/19 05:18:26;;;;;;;2.17;0.80;;;;;;;5.25;59.27;99503.81;5045383;28;20024;-55
2021/10/19 05:20:51;;;;;;;1.20;1.00;;;;;;;5.26;59.59;99524.94;5065639;28;20029;-55
2021/10/19 05:23:17;;;;;;;2.40;0.77;;;;;;;5.37;59.46;99526.91;5057069;28;20103;-58
2021/10/19 05:25:42;;;;;;;1.88;0.70;;;;;;;5.32;58.84;99508.63;5061665;28;20491;-55
2021/10/19 05:28:08;;;;;;;4.25;0.82;;;;;;;5.35;59.37;99527.97;5055865;28;20040;-55
2021/10/19 05:30:34;;;;;;;3.10;0.90;;;;;;;5.31;59.20;99522.00;5062979;28;20131;-56
2021/10/19 05:32:59;;;;;;;1.52;1.00;;;;;;;5.29;59.18;99502.66;5055086;28;20360;-57
2021/10/19 05:35:25;;;;;;;1.85;0.90;;;;;;;5.60;58.90;99521.91;5062888;28;20034;-56
2021/10/19 05:37:50;;;;;;;0.75;0.73;;;;;;;5.68;58.67;99535.56;5035617;28;20083;-54
2021/10/19 05:40:16;;;;;;;0.90;0.80;;;;;;;5.91;58.09;99540.31;5046702;28;20037;-57
2021/10/19 05:42:41;;;;;;;1.98;0.80;;;;;;;5.98;57.84;99541.59;5068180;28;20029;-56
2021/10/19 05:45:08;;;;;;;2.17;0.90;;;;;;;5.88;57.91;99542.22;5054090;28;20051;-58
2021/10/19 05:47:34;;;;;;;0.93;0.80;;;;;;;5.88;58.51;99546.69;5057244;28;20032;-59
2021/10/19 05:50:00;;;;;;;1.50;0.90;;;;;;;5.95;57.89;99552.44;5053894;28;20040;-59
2021/10/19 05:52:27;;;;;;;0.88;0.80;;;;;;;5.86;58.08;99541.47;5042709;28;20465;-56
2021/10/19 05:54:52;;;;;;;2.75;1.00;;;;;;;5.94;58.35;99553.41;5045624;28;20029;-54
2021/10/19 05:57:18;;;;;;;1.92;1.00;;;;;;;6.07;57.95;99556.13;5052232;28;20134;-53
2021/10/19 05:59:43;;;;;;;1.00;0.82;;;;;;;6.27;57.43;99558.31;5047551;28;20157;-55
2021/10/19 06:02:09;;;;;;;2.95;1.10;;;;;;;6.38;56.86;99557.59;5061966;28;20028;-52
2021/10/19 06:04:34;;;;;;;1.70;1.02;;;;;;;6.43;56.41;99552.81;5051338;28;20496;-57
2021/10/19 06:07:01;;;;;;;2.47;0.80;;;;;;;6.39;56.38;99561.09;5035732;28;20050;-55
2021/10/19 06:09:27;;;;;;;1.55;0.93;;;;;;;6.28;56.80;99561.84;5057313;28;20059;-57
2021/10/19 06:11:54;;;;;;;1.20;0.90;;;;;;;6.16;57.39;99564.34;5036016;28;20478;-54
2021/10/19 06:14:21;;;;;;;1.35;1.10;;;;;;;6.24;57.71;99578.94;5060964;28;20052;-61
2021/10/19 06:16:46;;;;;;;0.80;0.80;;;;;;;6.27;56.88;99570.75;5050394;28;20037;-62
2021/10/19 06:19:13;;;;;;;1.58;0.90;;;;;;;6.29;56.87;99582.16;5047074;28;20389;-60
2021/10/19 06:21:40;;;;;;;1.58;1.17;;;;;;;6.31;56.84;99573.09;5055100;28;20033;-56
2021/10/19 06:24:05;;;;;;;1.67;1.00;;;;;;;6.28;56.78;99569.81;5040058;28;20448;-55
2021/10/19 06:26:35;;;;;;;1.70;1.13;;;;;;;6.27;56.85;99576.06;5044175;28;20529;-55
2021/10/19 06:29:05;;;;;;;1.55;0.90;;;;;;;6.15;57.39;99573.28;5039724;28;20032;-59
2021/10/19 06:31:31;;;;;;;2.97;0.85;;;;;;;6.21;58.15;99571.16;5057590;28;20029;-56
2021/10/19 06:33:56;;;;;;;1.20;0.90;;;;;;;6.24;58.15;99578.94;5051616;28;20128;-57
2021/10/19 06:36:22;;;;;;;3.42;0.80;;;;;;;6.30;57.43;99581.19;5055268;28;20021;-58
2021/10/19 06:38:47;;;;;;;1.40;1.05;;;;;;;6.17;57.85;99576.69;5060893;28;20523;-54
2021/10/19 06:41:13;;;;;;;1.42;0.90;;;;;;;6.11;57.66;99561.16;5059262;28;20025;-52
2021/10/19 06:43:38;;;;;;;0.75;0.73;;;;;;;6.33;57.34;99583.66;5056762;28;20105;-51
2021/10/19 06:46:04;;;;;;;0.95;0.80;;;;;;;6.55;56.96;99572.41;5057519;28;20112;-54
2021/10/19 06:48:29;;;;;;;1.77;0.63;;;;;;;6.86;55.37;99574.78;5064077;28;20111;-53
2021/10/19 06:50:55;;;;;;;1.70;0.82;;;;;;;8.42;52.49;99577.84;5043549;28;20029;-59
2021/10/19 06:53:20;;;;;;;6.35;1.20;;;;;;;9.96;47.37;99561.34;5039545;28;20041;-55
2021/10/19 06:55:46;;;;;;;1.40;0.90;;;;;;;10.11;46.10;99569.94;5054146;28;20075;-53
2021/10/19 06:58:12;;;;;;;1.50;0.80;;;;;;;9.81;46.83;99571.47;5055358;28;20083;-55
2021/10/19 07:00:37;;;;;;;1.23;0.73;;;;;;;9.36;47.73;99577.75;5040405;28;20074;-59
2021/10/19 07:03:03;;;;;;;1.65;0.70;;;;;;;8.81;48.36;99572.25;5042874;28;20025;-59
2021/10/19 07:05:28;;;;;;;2.17;0.93;;;;;;;8.32;49.48;99580.34;5055193;28;20017;-56
2021/10/19 07:07:54;;;;;;;1.13;0.90;;;;;;;7.84;50.63;99574.06;5053258;28;20037;-58
2021/10/19 07:10:20;;;;;;;0.80;0.80;;;;;;;7.62;51.09;99577.44;5046572;28;20370;-54
2021/10/19 07:12:47;;;;;;;3.20;1.05;;;;;;;7.36;51.72;99577.50;5050717;28;20041;-56
2021/10/19 07:15:14;;;;;;;0.93;0.75;;;;;;;7.24;52.60;99578.38;5050804;28;20041;-57
2021/10/19 07:17:40;;;;;;;3.35;1.02;;;;;;;7.21;52.44;99576.75;5053401;28;20129;-56
2021/10/19 07:20:07;;;;;;;1.17;0.93;;;;;;;7.21;52.86;99584.75;5052715;28;20036;-58
2021/10/19 07:22:34;;;;;;;1.92;0.90;;;;;;;7.20;52.25;99582.22;5052000;28;20374;-54
2021/10/19 07:25:00;;;;;;;0.93;0.82;;;;;;;7.17;52.38;99586.81;5049536;28;20461;-54
2021/10/19 07:27:26;;;;;;;0.73;0.60;;;;;;;7.07;52.52;99563.59;5054487;28;20050;-51
2021/10/19 07:29:52;;;;;;;7.10;0.80;;;;;;;7.12;52.44;99580.09;5050080;28;20030;-55
2021/10/19 07:32:18;;;;;;;2.03;0.80;;;;;;;7.07;53.05;99579.56;5039029;28;20026;-55
2021/10/19 07:34:43;;;;;;;2.45;0.80;;;;;;;6.96;53.19;99581.16;5035864;28;20033;-56
2021/10/19 07:37:09;;;;;;;3.13;1.00;;;;;;;6.88;53.59;99584.38;5034498;28;20029;-56
2021/10/19 07:39:35;;;;;;;3.53;0.70;;;;;;;6.82;53.71;99578.59;5034683;28;20034;-54
2021/10/19 07:42:00;;;;;;;2.05;1.05;;;;;;;6.63;53.57;99547.94;5042860;28;20039;-50
2021/10/19 07:44:26;;;;;;;1.02;0.70;;;;;;;6.73;53.76;99585.41;5049430;28;20033;-55
2021/10/19 07:46:52;;;;;;;2.72;0.80;;;;;;;6.76;53.65;99590.53;5035288;28;20040;-57
2021/10/19 07:49:19;;;;;;;1.63;0.98;;;;;;;6.97;52.55;99590.00;5034657;28;20112;-57
2021/10/19 07:51:45;;;;;;;1.48;0.80;;;;;;;7.02;52.14;99594.06;5034833;28;20029;-56
2021/10/19 07:54:10;;;;;;;2.42;0.70;;;;;;;7.21;51.74;99584.75;5033612;28;20080;-55
2021/10/19 07:56:36;;;;;;;1.05;0.70;;;;;;;7.26;50.86;99566.66;5036235;28;20033;-55
2021/10/19 07:59:05;;;;;;;2.42;0.70;;;;;;;7.49;50.42;99601.47;5034249;28;20041;-53
2021/10/19 08:01:30;;;;;;;0.68;0.60;;;;;;;7.45;50.15;99602.63;5040485;28;20099;-55
2021/10/19 08:03:56;;;;;;;2.80;0.80;;;;;;;7.36;50.62;99603.28;5049595;28;20037;-55
2021/10/19 08:06:21;;;;;;;0.77;0.57;;;;;;;7.18;50.32;99598.28;5038366;28;20027;-58
2021/10/19 08:08:47;;;;;;;1.67;0.70;;;;;;;7.10;51.09;99597.97;5054005;28;20060;-53
2021/10/19 08:11:13;;;;;;;1.63;0.60;;;;;;;7.11;51.14;99597.03;5051660;28;20099;-56
2021/10/19 08:13:38;;;;;;;2.45;0.88;;;;;;;7.18;51.08;99598.28;5033625;28;20209;-54
2021/10/19 08:16:04;;;;;;;1.60;0.65;;;;;;;7.20;50.92;99604.34;5051782;28;20473;-54
2021/10/19 08:18:30;;;;;;;1.58;0.50;;;;;;;7.05;50.77;99579.66;5052024;28;20106;-54
2021/10/19 08:20:56;;;;;;;4.82;0.88;;;;;;;7.21;50.82;99606.06;5048564;28;20500;-54
2021/10/19 08:23:21;;;;;;;0.80;0.60;;;;;;;7.23;50.44;99608.63;5036362;28;20098;-55
2021/10/19 08:25:47;;;;;;;1.20;0.70;;;;;;;7.30;50.52;99608.09;5052099;28;20040;-53
2021/10/19 08:28:24;;;;;;;0.80;0.60;;;;;;;7.58;50.46;99614.09;5048265;28;20029;-55
2021/10/19 08:30:51;;;;;;;0.60;0.60;;;;;;;7.74;50.02;99615.69;5051998;28;20037;-53
2021/10/19 08:33:17;;;;;;;3.72;0.85;;;;;;;7.93;49.00;99611.66;5052245;28;20033;-55
2021/10/19 08:35:43;;;;;;;1.08;0.60;;;;;;;7.72;48.14;99570.47;5051426;28;20025;-54
2021/10/19 08:38:13;;;;;;;0.80;0.60;;;;;;;8.01;47.93;99611.97;5045039;28;20083;-52
2021/10/19 08:40:39;;;;;;;2.15;0.70;;;;;;;8.04;47.60;99598.41;5036460;28;20037;-51
2021/10/19 08:43:05;;;;;;;0.60;0.52;;;;;;;8.13;47.23;99613.72;5052910;28;20512;-54
2021/10/19 08:45:30;;;;;;;1.02;0.65;;;;;;;8.15;47.02;99618.94;5050984;28;20024;-51
2021/10/19 08:47:56;;;;;;;0.75;0.63;;;;;;;8.10;47.21;99619.28;5050073;28;20506;-57
2021/10/19 08:50:24;;;;;;;2.75;0.52;;;;;;;8.05;47.59;99627.59;5032879;28;20041;-49
2021/10/19 08:52:49;;;;;;;3.38;0.60;;;;;;;7.90;48.41;99618.09;5033554;28;20067;-55
2021/10/19 08:55:15;;;;;;;0.70;0.60;;;;;;;7.84;49.16;99619.38;5031382;28;20176;-53
2021/10/19 08:57:41;;;;;;;1.63;0.82;;;;;;;7.93;48.99;99616.97;5047836;28;20048;-57
2021/10/19 09:00:09;;;;;;;1.00;0.80;;;;;;;8.29;48.55;99618.75;5037505;28;20044;-55
2021/10/19 09:02:45;;;;;;;2.55;0.80;;;;;;;8.85;47.41;99630.66;5052232;28;20032;-54
2021/10/19 09:05:15;;;;;;;1.63;0.70;;;;;;;9.18;46.05;99618.31;5052590;28;20049;-53
2021/10/19 09:07:51;;;;;;;2.20;0.75;;;;;;;9.19;45.64;99622.66;5050980;28;20112;-51
2021/10/19 09:10:16;;;;;;;1.45;0.82;;;;;;;9.22;45.62;99616.25;5038594;28;20039;-52
2021/10/19 09:12:52;;;;;;;0.55;0.40;;;;;;;9.32;45.62;99625.22;5049352;28;20045;-54
2021/10/19 09:15:21;;;;;;;1.20;0.40;;;;;;;9.22;45.28;99631.41;5051341;28;20244;-54
2021/10/19 09:17:47;;;;;;;1.23;0.55;;;;;;;9.21;44.54;99637.72;5050184;28;20035;-56
2021/10/19 09:20:15;;;;;;;1.02;0.50;;;;;;;9.07;45.21;99646.81;5045264;28;20397;-57
2021/10/19 09:22:54;;;;;;;0.77;0.50;;;;;;;9.12;45.43;99652.66;5031504;28;20099;-52
2021/10/19 09:25:33;;;;;;;0.88;0.70;;;;;;;9.01;45.50;99641.00;5030891;28;20381;-52
2021/10/19 09:28:01;;;;;;;0.77;0.38;;;;;;;9.14;45.46;99651.56;5036724;28;20108;-51
2021/10/19 09:30:51;;;;;;;0.45;0.40;;;;;;;9.50;45.69;99650.63;5045925;28;20025;-55
2021/10/19 09:33:21;;;;;;;0.65;0.60;;;;;;;9.40;44.18;99647.81;5040448;28;20044;-55
2021/10/19 09:35:55;;;;;;;1.35;0.55;;;;;;;9.18;44.86;99646.84;5052126;28;20376;-51
2021/10/19 09:38:21;;;;;;;1.77;0.63;;;;;;;8.90;45.47;99652.50;5048395;28;20392;-55
2021/10/19 09:40:53;;;;;;;2.25;0.80;;;;;;;8.57;46.89;99653.22;5039739;28;20091;-55
2021/10/19 09:43:24;;;;;;;0.70;0.57;;;;;;;8.21;48.93;99661.16;5032041;28;20052;-55
2021/10/19 09:45:53;;;;;;;1.00;0.57;;;;;;;7.90;50.98;99668.72;5030840;28;20029;-53
2021/10/19 09:48:27;;;;;;;1.25;0.55;;;;;;;7.70;52.11;99664.81;5032300;28;20087;-54
2021/10/19 09:50:53;;;;;;;0.88;0.63;;;;;;;7.57;53.46;99667.50;5032859;28;20036;-53
2021/10/19 09:53:22;;;;;;;1.98;1.00;;;;;;;7.50;52.66;99663.56;5032694;28;20398;-53
2021/10/19 09:55:52;;;;;;;5.68;0.77;;;;;;;7.64;53.47;99673.25;5031728;28;20036;-54
2021/10/19 09:58:19;;;;;;;0.88;0.70;;;;;;;7.68;52.08;99664.06;5051004;28;20041;-55
2021/10/19 10:00:44;;;;;;;2.47;0.90;;;;;;;7.67;52.15;99665.03;5036232;28;20083;-55
2021/10/19 10:03:14;;;;;;;0.88;0.68;;;;;;;7.54;51.80;99636.59;5047060;28;20052;-54
2021/10/19 10:05:40;;;;;;;0.50;0.50;;;;;;;7.55;50.83;99651.63;5051726;28;20564;-55
2021/10/19 10:08:11;;;;;;;1.80;1.08;;;;;;;7.68;50.59;99674.72;5049738;28;20021;-53
2021/10/19 10:10:37;;;;;;;0.75;0.60;;;;;;;7.61;49.87;99672.50;5046165;28;20059;-54
2021/10/19 10:13:14;;;;;;;0.38;0.38;;;;;;;7.73;49.92;99664.63;5041700;28;20150;-56
2021/10/19 10:15:40;;;;;;;1.20;0.50;;;;;;;7.66;48.99;99664.19;5030977;28;20041;-54
2021/10/19 10:18:09;;;;;;;0.85;0.32;;;;;;;7.64;49.17;99659.91;5030566;28;20052;-56
2021/10/19 10:20:49;;;;;;;1.88;0.50;;;;;;;7.57;50.05;99657.69;5037459;28;20033;-56
2021/10/19 10:23:14;;;;;;;1.38;0.45;;;;;;;7.37;49.58;99650.25;5048645;28;20376;-56
2021/10/19 10:25:40;;;;;;;2.20;0.65;;;;;;;7.23;49.83;99652.06;5050600;28;20511;-49
2021/10/19 10:28:29;;;;;;;1.70;0.55;;;;;;;7.16;50.06;99662.31;5050819;28;20104;-54
2021/10/19 10:30:58;;;;;;;1.80;0.57;;;;;;;7.02;50.39;99652.63;5045638;28;20053;-55
2021/10/19 10:33:34;;;;;;;1.80;0.73;;;;;;;7.13;50.00;99651.88;5035092;28;20527;-52
2021/10/19 10:36:04;;;;;;;2.22;0.77;;;;;;;7.18;49.80;99654.19;5050430;28;20033;-57
2021/10/19 10:38:30;;;;;;;0.85;0.60;;;;;;;7.19;49.41;99650.56;5051155;28;20040;-56
2021/10/19 10:41:07;;;;;;;0.50;0.50;;;;;;;7.24;50.05;99656.47;5049133;28;20029;-57
2021/10/19 10:43:35;;;;;;;1.17;0.77;;;;;;;7.24;50.57;99664.44;5047561;28;20025;-55
2021/10/19 10:46:20;;;;;;;0.93;0.60;;;;;;;7.26;50.14;99657.19;5031041;28;20490;-56
2021/10/19 10:48:47;;;;;;;1.17;0.50;;;;;;;7.47;49.45;99656.63;5028897;28;20140;-53
2021/10/19 10:51:24;;;;;;;2.20;0.60;;;;;;;7.61;48.78;99648.53;5030555;28;20037;-52
2021/10/19 10:53:49;;;;;;;1.08;0.55;;;;;;;7.78;48.33;99648.28;5033349;28;20350;-55
2021/10/19 10:56:16;;;;;;;1.95;0.63;;;;;;;7.84;48.39;99653.19;5035530;28;20044;-51
2021/10/19 10:58:43;;;;;;;0.73;0.57;;;;;;;7.92;48.31;99653.47;5030644;28;20496;-56
2021/10/19 11:01:23;;;;;;;1.42;0.65;;;;;;;8.08;48.45;99658.53;5031076;28;20037;-56
2021/10/19 11:03:52;;;;;;;3.17;0.80;;;;;;;8.12;47.88;99660.00;5031335;28;20029;-55
2021/10/19 11:06:21;;;;;;;1.15;0.60;;;;;;;8.15;47.21;99653.63;5044591;28;20536;-52
2021/10/19 11:08:56;;;;;;;2.58;0.70;;;;;;;8.15;47.03;99656.28;5030484;28;20470;-55
2021/10/19 11:11:22;;;;;;;1.25;0.63;;;;;;;8.15;47.11;99654.44;5031064;28;20386;-53
2021/10/19 11:14:00;;;;;;;0.85;0.60;;;;;;;8.08;47.44;99663.88;5028638;28;20049;-53
2021/10/19 11:16:34;;;;;;;1.00;0.68;;;;;;;7.85;48.12;99647.72;5031441;28;20354;-54
2021/10/19 11:19:03;;;;;;;1.45;0.80;;;;;;;7.66;48.87;99634.00;5029988;28;20038;-56
2021/10/19 11:21:29;;;;;;;1.25;0.82;;;;;;;7.54;50.14;99657.06;5031238;28;20038;-52
2021/10/19 11:23:55;;;;;;;5.43;0.82;;;;;;;7.19;50.60;99682.53;5030175;28;20041;-52
2021/10/19 11:26:21;;;;;;;1.58;1.00;;;;;;;6.98;51.81;99674.22;5036412;28;20033;-51
2021/10/19 11:28:47;;;;;;;2.20;1.02;;;;;;;6.80;52.20;99685.16;5050402;28;20025;-55
2021/10/19 11:31:14;;;;;;;4.60;0.95;;;;;;;6.65;52.79;99672.88;5049469;28;20078;-54
2021/10/19 11:33:45;;;;;;;2.15;1.17;;;;;;;6.60;52.96;99682.00;5050025;28;20044;-56
2021/10/19 11:36:12;;;;;;;2.28;1.05;;;;;;;6.46;53.85;99680.25;5047646;28;20115;-56
2021/10/19 11:38:48;;;;;;;3.58;1.08;;;;;;;6.35;53.66;99648.22;5050561;28;20075;-58
2021/10/19 11:41:32;;;;;;;5.45;1.23;;;;;;;6.63;53.60;99672.97;5050419;28;20029;-52